sensor_id;sensor_type;location;lat;lon;timestamp;P1;durP1;ratioP1;P2;durP2;ratioP2
11496;SDS011;5805;51.542;7.230;2022-09-09T00:00:05;1.35;;;0.50;;
11496;SDS011;5805;51.542;7.230;2022-09-09T00:02:36;2.33;;;0.70;;
11496;SDS011;5805;51.542;7.230;2022-09-09T00:05:08;2.15;;;1.00;;
11496;SDS011;5805;51.542;7.230;2022-09-09T00:07:43;0.68;;;0.68;;
11496;SDS011;5805;51.542;7.230;2022-09-09T00:10:15;2.20;;;1.00;;
11496;SDS011;5805;51.542;7.230;2022-09-09T00:12:48;2.15;;;1.08;;
11496;SDS011;5805;51.542;7.230;2022-09-09T00:15:21;2.08;;;0.68;;
11496;SDS011;5805;51.542;7.230;2022-09-09T00:17:51;3.20;;;0.77;;
11496;SDS011;5805;51.542;7.230;2022-09-09T00:20:23;2.67;;;0.70;;
11496;SDS011;5805;51.542;7.230;2022-09-09T00:22:55;1.98;;;0.90;;
11496;SDS011;5805;51.542;7.230;2022-09-09T00:25:27;1.58;;;0.70;;
11496;SDS011;5805;51.542;7.230;2022-09-09T00:27:56;1.30;;;0.57;;
11496;SDS011;5805;51.542;7.230;2022-09-09T00:30:23;2.53;;;0.70;;
11496;SDS011;5805;51.542;7.230;2022-09-09T00:32:50;1.88;;;0.68;;
11496;SDS011;5805;51.542;7.230;2022-09-09T00:35:21;2.03;;;0.75;;
11496;SDS011;5805;51.542;7.230;2022-09-09T00:37:50;1.95;;;0.43;;
11496;SDS011;5805;51.542;7.230;2022-09-09T00:40:18;0.98;;;0.60;;
11496;SDS011;5805;51.542;7.230;2022-09-09T00:42:50;0.75;;;0.52;;
11496;SDS011;5805;51.542;7.230;2022-09-09T00:45:31;0.75;;;0.57;;
11496;SDS011;5805;51.542;7.230;2022-09-09T00:48:10;1.27;;;0.60;;
11496;SDS011;5805;51.542;7.230;2022-09-09T00:50:42;1.27;;;0.50;;
11496;SDS011;5805;51.542;7.230;2022-09-09T00:53:19;1.17;;;0.70;;
11496;SDS011;5805;51.542;7.230;2022-09-09T00:55:54;0.82;;;0.60;;
11496;SDS011;5805;51.542;7.230;2022-09-09T00:58:31;0.45;;;0.45;;
11496;SDS011;5805;51.542;7.230;2022-09-09T01:00:57;1.63;;;0.70;;
11496;SDS011;5805;51.542;7.230;2022-09-09T01:03:30;0.40;;;0.38;;
11496;SDS011;5805;51.542;7.230;2022-09-09T01:06:12;0.93;;;0.60;;
11496;SDS011;5805;51.542;7.230;2022-09-09T01:08:57;3.22;;;1.05;;
11496;SDS011;5805;51.542;7.230;2022-09-09T01:11:42;0.68;;;0.60;;
11496;SDS011;5805;51.542;7.230;2022-09-09T01:14:18;1.17;;;0.55;;
11496;SDS011;5805;51.542;7.230;2022-09-09T01:16:54;2.22;;;0.63;;
11496;SDS011;5805;51.542;7.230;2022-09-09T01:19:27;1.55;;;0.80;;
11496;SDS011;5805;51.542;7.230;2022-09-09T01:22:21;2.05;;;0.80;;
11496;SDS011;5805;51.542;7.230;2022-09-09T01:25:07;2.35;;;0.80;;
11496;SDS011;5805;51.542;7.230;2022-09-09T01:27:54;1.73;;;0.85;;
11496;SDS011;5805;51.542;7.230;2022-09-09T01:30:22;3.40;;;0.73;;
11496;SDS011;5805;51.542;7.230;2022-09-09T01:32:49;2.47;;;0.80;;
11496;SDS011;5805;51.542;7.230;2022-09-09T01:35:19;2.90;;;1.42;;
11496;SDS011;5805;51.542;7.230;2022-09-09T01:37:57;5.35;;;1.30;;
11496;SDS011;5805;51.542;7.230;2022-09-09T01:40:23;2.35;;;1.00;;
11496;SDS011;5805;51.542;7.230;2022-09-09T01:42:50;3.00;;;1.15;;
11496;SDS011;5805;51.542;7.230;2022-09-09T01:45:17;3.47;;;1.63;;
11496;SDS011;5805;51.542;7.230;2022-09-09T01:47:43;3.83;;;1.35;;
11496;SDS011;5805;51.542;7.230;2022-09-09T01:50:10;5.18;;;1.27;;
11496;SDS011;5805;51.542;7.230;2022-09-09T01:52:39;4.18;;;1.33;;
11496;SDS011;5805;51.542;7.230;2022-09-09T01:55:05;2.67;;;1.20;;
11496;SDS011;5805;51.542;7.230;2022-09-09T01:57:33;2.63;;;1.30;;
11496;SDS011;5805;51.542;7.230;2022-09-09T02:00:07;4.68;;;1.90;;
11496;SDS011;5805;51.542;7.230;2022-09-09T02:02:37;2.17;;;1.45;;
11496;SDS011;5805;51.542;7.230;2022-09-09T02:05:12;5.15;;;1.65;;
11496;SDS011;5805;51.542;7.230;2022-09-09T02:07:47;3.17;;;1.70;;
11496;SDS011;5805;51.542;7.230;2022-09-09T02:10:16;3.22;;;1.77;;
11496;SDS011;5805;51.542;7.230;2022-09-09T02:12:45;2.58;;;1.30;;
11496;SDS011;5805;51.542;7.230;2022-09-09T02:15:16;3.30;;;1.48;;
11496;SDS011;5805;51.542;7.230;2022-09-09T02:17:48;4.70;;;1.48;;
11496;SDS011;5805;51.542;7.230;2022-09-09T02:20:16;2.85;;;1.65;;
11496;SDS011;5805;51.542;7.230;2022-09-09T02:22:44;3.15;;;1.23;;
11496;SDS011;5805;51.542;7.230;2022-09-09T02:25:14;3.15;;;1.15;;
11496;SDS011;5805;51.542;7.230;2022-09-09T02:27:43;5.68;;;1.20;;
11496;SDS011;5805;51.542;7.230;2022-09-09T02:30:11;2.33;;;1.30;;
11496;SDS011;5805;51.542;7.230;2022-09-09T02:32:37;4.72;;;1.60;;
11496;SDS011;5805;51.542;7.230;2022-09-09T02:35:06;4.32;;;1.38;;
11496;SDS011;5805;51.542;7.230;2022-09-09T02:37:36;1.67;;;1.10;;
11496;SDS011;5805;51.542;7.230;2022-09-09T02:40:03;2.90;;;1.63;;
11496;SDS011;5805;51.542;7.230;2022-09-09T02:42:31;3.72;;;1.90;;
11496;SDS011;5805;51.542;7.230;2022-09-09T02:44:57;3.75;;;1.67;;
11496;SDS011;5805;51.542;7.230;2022-09-09T02:47:25;5.15;;;1.30;;
11496;SDS011;5805;51.542;7.230;2022-09-09T02:49:57;4.63;;;1.55;;
11496;SDS011;5805;51.542;7.230;2022-09-09T02:52:35;3.10;;;1.27;;
11496;SDS011;5805;51.542;7.230;2022-09-09T02:55:16;2.58;;;1.30;;
11496;SDS011;5805;51.542;7.230;2022-09-09T02:57:46;3.15;;;1.30;;
11496;SDS011;5805;51.542;7.230;2022-09-09T03:00:13;2.72;;;1.52;;
11496;SDS011;5805;51.542;7.230;2022-09-09T03:02:39;4.38;;;1.40;;
11496;SDS011;5805;51.542;7.230;2022-09-09T03:05:06;3.75;;;1.75;;
11496;SDS011;5805;51.542;7.230;2022-09-09T03:07:32;1.52;;;1.30;;
11496;SDS011;5805;51.542;7.230;2022-09-09T03:09:58;3.00;;;1.20;;
11496;SDS011;5805;51.542;7.230;2022-09-09T03:12:23;3.53;;;1.40;;
11496;SDS011;5805;51.542;7.230;2022-09-09T03:14:49;4.85;;;1.95;;
11496;SDS011;5805;51.542;7.230;2022-09-09T03:17:15;4.28;;;1.40;;
11496;SDS011;5805;51.542;7.230;2022-09-09T03:19:41;2.20;;;1.20;;
11496;SDS011;5805;51.542;7.230;2022-09-09T03:22:09;3.00;;;1.45;;
11496;SDS011;5805;51.542;7.230;2022-09-09T03:24:35;2.95;;;1.27;;
11496;SDS011;5805;51.542;7.230;2022-09-09T03:27:00;2.95;;;1.38;;
11496;SDS011;5805;51.542;7.230;2022-09-09T03:29:26;5.45;;;1.35;;
11496;SDS011;5805;51.542;7.230;2022-09-09T03:31:52;2.08;;;1.40;;
11496;SDS011;5805;51.542;7.230;2022-09-09T03:34:17;4.70;;;1.65;;
11496;SDS011;5805;51.542;7.230;2022-09-09T03:36:43;2.80;;;1.20;;
11496;SDS011;5805;51.542;7.230;2022-09-09T03:39:10;2.65;;;1.30;;
11496;SDS011;5805;51.542;7.230;2022-09-09T03:41:36;4.95;;;1.00;;
11496;SDS011;5805;51.542;7.230;2022-09-09T03:44:02;2.58;;;1.23;;
11496;SDS011;5805;51.542;7.230;2022-09-09T03:46:28;4.20;;;1.25;;
11496;SDS011;5805;51.542;7.230;2022-09-09T03:48:53;5.30;;;1.38;;
11496;SDS011;5805;51.542;7.230;2022-09-09T03:51:19;2.65;;;1.30;;
11496;SDS011;5805;51.542;7.230;2022-09-09T03:53:45;2.28;;;1.15;;
11496;SDS011;5805;51.542;7.230;2022-09-09T03:56:12;4.20;;;1.30;;
11496;SDS011;5805;51.542;7.230;2022-09-09T03:58:38;3.22;;;1.10;;
11496;SDS011;5805;51.542;7.230;2022-09-09T04:01:04;3.13;;;1.30;;
11496;SDS011;5805;51.542;7.230;2022-09-09T04:03:31;2.85;;;1.30;;
11496;SDS011;5805;51.542;7.230;2022-09-09T04:05:58;2.13;;;0.98;;
11496;SDS011;5805;51.542;7.230;2022-09-09T04:08:25;4.28;;;1.33;;
11496;SDS011;5805;51.542;7.230;2022-09-09T04:10:51;1.75;;;1.10;;
11496;SDS011;5805;51.542;7.230;2022-09-09T04:13:19;2.95;;;1.40;;
11496;SDS011;5805;51.542;7.230;2022-09-09T04:15:48;2.42;;;1.20;;
11496;SDS011;5805;51.542;7.230;2022-09-09T04:18:16;3.28;;;1.17;;
11496;SDS011;5805;51.542;7.230;2022-09-09T04:20:41;4.05;;;1.33;;
11496;SDS011;5805;51.542;7.230;2022-09-09T04:23:07;3.33;;;1.42;;
11496;SDS011;5805;51.542;7.230;2022-09-09T04:25:32;3.05;;;1.33;;
11496;SDS011;5805;51.542;7.230;2022-09-09T04:27:58;2.72;;;1.10;;
11496;SDS011;5805;51.542;7.230;2022-09-09T04:30:25;3.15;;;1.27;;
11496;SDS011;5805;51.542;7.230;2022-09-09T04:32:51;3.80;;;1.27;;
11496;SDS011;5805;51.542;7.230;2022-09-09T04:35:16;5.38;;;1.30;;
11496;SDS011;5805;51.542;7.230;2022-09-09T04:37:42;3.92;;;1.35;;
11496;SDS011;5805;51.542;7.230;2022-09-09T04:40:08;4.18;;;1.30;;
11496;SDS011;5805;51.542;7.230;2022-09-09T04:42:34;2.80;;;1.30;;
11496;SDS011;5805;51.542;7.230;2022-09-09T04:45:00;3.08;;;1.00;;
11496;SDS011;5805;51.542;7.230;2022-09-09T04:47:27;5.10;;;1.65;;
11496;SDS011;5805;51.542;7.230;2022-09-09T04:49:53;4.30;;;1.70;;
11496;SDS011;5805;51.542;7.230;2022-09-09T04:52:18;3.50;;;1.45;;
11496;SDS011;5805;51.542;7.230;2022-09-09T04:54:44;3.67;;;1.23;;
11496;SDS011;5805;51.542;7.230;2022-09-09T04:57:10;4.05;;;1.33;;
11496;SDS011;5805;51.542;7.230;2022-09-09T04:59:35;3.03;;;1.40;;
11496;SDS011;5805;51.542;7.230;2022-09-09T05:02:01;4.57;;;1.50;;
11496;SDS011;5805;51.542;7.230;2022-09-09T05:04:28;4.32;;;1.70;;
11496;SDS011;5805;51.542;7.230;2022-09-09T05:06:54;4.15;;;1.50;;
11496;SDS011;5805;51.542;7.230;2022-09-09T05:09:20;4.53;;;1.23;;
11496;SDS011;5805;51.542;7.230;2022-09-09T05:11:46;3.85;;;1.77;;
11496;SDS011;5805;51.542;7.230;2022-09-09T05:14:11;2.80;;;1.40;;
11496;SDS011;5805;51.542;7.230;2022-09-09T05:16:37;5.15;;;1.70;;
11496;SDS011;5805;51.542;7.230;2022-09-09T05:19:03;3.40;;;1.40;;
11496;SDS011;5805;51.542;7.230;2022-09-09T05:21:30;4.82;;;1.75;;
11496;SDS011;5805;51.542;7.230;2022-09-09T05:23:56;3.40;;;1.40;;
11496;SDS011;5805;51.542;7.230;2022-09-09T05:26:22;4.28;;;1.45;;
11496;SDS011;5805;51.542;7.230;2022-09-09T05:28:48;2.22;;;1.02;;
11496;SDS011;5805;51.542;7.230;2022-09-09T05:31:14;6.70;;;1.35;;
11496;SDS011;5805;51.542;7.230;2022-09-09T05:33:42;4.53;;;1.33;;
11496;SDS011;5805;51.542;7.230;2022-09-09T05:36:10;6.03;;;1.80;;
11496;SDS011;5805;51.542;7.230;2022-09-09T05:38:38;5.75;;;1.77;;
11496;SDS011;5805;51.542;7.230;2022-09-09T05:41:04;3.33;;;1.50;;
11496;SDS011;5805;51.542;7.230;2022-09-09T05:43:30;4.40;;;1.63;;
11496;SDS011;5805;51.542;7.230;2022-09-09T05:45:59;3.85;;;1.70;;
11496;SDS011;5805;51.542;7.230;2022-09-09T05:48:27;6.50;;;1.48;;
11496;SDS011;5805;51.542;7.230;2022-09-09T05:50:53;4.47;;;1.55;;
11496;SDS011;5805;51.542;7.230;2022-09-09T05:53:19;3.88;;;1.52;;
11496;SDS011;5805;51.542;7.230;2022-09-09T05:55:46;4.47;;;1.55;;
11496;SDS011;5805;51.542;7.230;2022-09-09T05:58:12;4.78;;;1.27;;
11496;SDS011;5805;51.542;7.230;2022-09-09T06:00:38;3.92;;;1.33;;
11496;SDS011;5805;51.542;7.230;2022-09-09T06:03:03;5.30;;;2.10;;
11496;SDS011;5805;51.542;7.230;2022-09-09T06:05:29;5.18;;;1.33;;
11496;SDS011;5805;51.542;7.230;2022-09-09T06:07:55;4.85;;;1.55;;
11496;SDS011;5805;51.542;7.230;2022-09-09T06:10:20;4.18;;;1.38;;
11496;SDS011;5805;51.542;7.230;2022-09-09T06:12:48;4.63;;;1.40;;
11496;SDS011;5805;51.542;7.230;2022-09-09T06:15:13;4.53;;;1.58;;
11496;SDS011;5805;51.542;7.230;2022-09-09T06:17:39;5.57;;;1.63;;
11496;SDS011;5805;51.542;7.230;2022-09-09T06:20:05;7.80;;;1.80;;
11496;SDS011;5805;51.542;7.230;2022-09-09T06:22:31;4.80;;;1.73;;
11496;SDS011;5805;51.542;7.230;2022-09-09T06:24:57;5.43;;;1.90;;
11496;SDS011;5805;51.542;7.230;2022-09-09T06:27:23;6.32;;;1.65;;
11496;SDS011;5805;51.542;7.230;2022-09-09T06:29:50;3.63;;;1.92;;
11496;SDS011;5805;51.542;7.230;2022-09-09T06:32:15;4.68;;;1.48;;
11496;SDS011;5805;51.542;7.230;2022-09-09T06:34:41;3.67;;;1.50;;
11496;SDS011;5805;51.542;7.230;2022-09-09T06:37:07;6.82;;;2.17;;
11496;SDS011;5805;51.542;7.230;2022-09-09T06:39:32;4.15;;;1.73;;
11496;SDS011;5805;51.542;7.230;2022-09-09T06:41:58;3.55;;;1.65;;
11496;SDS011;5805;51.542;7.230;2022-09-09T06:44:24;7.28;;;1.42;;
11496;SDS011;5805;51.542;7.230;2022-09-09T06:46:51;4.22;;;1.75;;
11496;SDS011;5805;51.542;7.230;2022-09-09T06:49:16;4.53;;;1.67;;
11496;SDS011;5805;51.542;7.230;2022-09-09T06:51:42;3.63;;;1.67;;
11496;SDS011;5805;51.542;7.230;2022-09-09T06:54:08;7.75;;;1.60;;
11496;SDS011;5805;51.542;7.230;2022-09-09T06:56:35;6.53;;;1.58;;
11496;SDS011;5805;51.542;7.230;2022-09-09T06:59:03;6.10;;;1.42;;
11496;SDS011;5805;51.542;7.230;2022-09-09T07:01:30;3.55;;;1.38;;
11496;SDS011;5805;51.542;7.230;2022-09-09T07:03:58;4.03;;;1.35;;
11496;SDS011;5805;51.542;7.230;2022-09-09T07:06:26;4.40;;;1.20;;
11496;SDS011;5805;51.542;7.230;2022-09-09T07:08:53;4.78;;;1.60;;
11496;SDS011;5805;51.542;7.230;2022-09-09T07:11:20;5.10;;;1.92;;
11496;SDS011;5805;51.542;7.230;2022-09-09T07:13:49;5.20;;;1.40;;
11496;SDS011;5805;51.542;7.230;2022-09-09T07:16:16;6.05;;;2.10;;
11496;SDS011;5805;51.542;7.230;2022-09-09T07:18:43;4.72;;;1.58;;
11496;SDS011;5805;51.542;7.230;2022-09-09T07:21:10;5.85;;;1.58;;
11496;SDS011;5805;51.542;7.230;2022-09-09T07:23:37;4.40;;;1.30;;
11496;SDS011;5805;51.542;7.230;2022-09-09T07:26:06;9.52;;;1.45;;
11496;SDS011;5805;51.542;7.230;2022-09-09T07:28:33;4.57;;;1.42;;
11496;SDS011;5805;51.542;7.230;2022-09-09T07:30:59;4.47;;;1.42;;
11496;SDS011;5805;51.542;7.230;2022-09-09T07:33:26;5.85;;;1.67;;
11496;SDS011;5805;51.542;7.230;2022-09-09T07:35:52;7.35;;;1.80;;
11496;SDS011;5805;51.542;7.230;2022-09-09T07:38:19;4.43;;;1.45;;
11496;SDS011;5805;51.542;7.230;2022-09-09T07:40:45;4.72;;;1.42;;
11496;SDS011;5805;51.542;7.230;2022-09-09T07:43:11;4.28;;;1.70;;
11496;SDS011;5805;51.542;7.230;2022-09-09T07:45:37;5.47;;;1.50;;
11496;SDS011;5805;51.542;7.230;2022-09-09T07:48:03;4.25;;;1.42;;
11496;SDS011;5805;51.542;7.230;2022-09-09T07:50:30;4.63;;;1.50;;
11496;SDS011;5805;51.542;7.230;2022-09-09T07:52:56;5.63;;;1.65;;
11496;SDS011;5805;51.542;7.230;2022-09-09T07:55:23;5.60;;;1.30;;
11496;SDS011;5805;51.542;7.230;2022-09-09T07:57:48;4.45;;;1.40;;
11496;SDS011;5805;51.542;7.230;2022-09-09T08:00:14;4.38;;;1.40;;
11496;SDS011;5805;51.542;7.230;2022-09-09T08:02:40;4.00;;;1.50;;
11496;SDS011;5805;51.542;7.230;2022-09-09T08:05:06;4.65;;;1.45;;
11496;SDS011;5805;51.542;7.230;2022-09-09T08:07:32;7.00;;;1.80;;
11496;SDS011;5805;51.542;7.230;2022-09-09T08:09:58;8.55;;;2.13;;
11496;SDS011;5805;51.542;7.230;2022-09-09T08:12:25;2.83;;;1.30;;
11496;SDS011;5805;51.542;7.230;2022-09-09T08:14:50;4.20;;;1.85;;
11496;SDS011;5805;51.542;7.230;2022-09-09T08:17:16;5.32;;;1.92;;
11496;SDS011;5805;51.542;7.230;2022-09-09T08:19:42;5.35;;;1.98;;
11496;SDS011;5805;51.542;7.230;2022-09-09T08:22:07;7.63;;;1.40;;
11496;SDS011;5805;51.542;7.230;2022-09-09T08:24:33;3.45;;;1.40;;
11496;SDS011;5805;51.542;7.230;2022-09-09T08:26:59;11.05;;;1.88;;
11496;SDS011;5805;51.542;7.230;2022-09-09T08:29:26;4.38;;;1.45;;
11496;SDS011;5805;51.542;7.230;2022-09-09T08:31:52;6.50;;;1.40;;
11496;SDS011;5805;51.542;7.230;2022-09-09T08:34:19;4.03;;;1.20;;
11496;SDS011;5805;51.542;7.230;2022-09-09T08:36:46;5.40;;;1.40;;
11496;SDS011;5805;51.542;7.230;2022-09-09T08:39:14;5.45;;;1.40;;
11496;SDS011;5805;51.542;7.230;2022-09-09T08:44:39;4.30;;;1.30;;
11496;SDS011;5805;51.542;7.230;2022-09-09T08:47:25;5.70;;;2.10;;
11496;SDS011;5805;51.542;7.230;2022-09-09T08:50:05;3.40;;;1.52;;
11496;SDS011;5805;51.542;7.230;2022-09-09T08:52:45;4.70;;;1.80;;
11496;SDS011;5805;51.542;7.230;2022-09-09T08:55:20;5.63;;;1.63;;
11496;SDS011;5805;51.542;7.230;2022-09-09T08:57:52;5.88;;;1.73;;
11496;SDS011;5805;51.542;7.230;2022-09-09T09:00:21;10.65;;;2.40;;
11496;SDS011;5805;51.542;7.230;2022-09-09T09:02:54;8.38;;;2.10;;
11496;SDS011;5805;51.542;7.230;2022-09-09T09:05:31;2.50;;;1.25;;
11496;SDS011;5805;51.542;7.230;2022-09-09T09:08:04;9.75;;;1.77;;
11496;SDS011;5805;51.542;7.230;2022-09-09T09:10:44;6.95;;;2.17;;
11496;SDS011;5805;51.542;7.230;2022-09-09T09:13:13;4.05;;;1.80;;
11496;SDS011;5805;51.542;7.230;2022-09-09T09:15:43;8.10;;;1.48;;
11496;SDS011;5805;51.542;7.230;2022-09-09T09:18:12;4.55;;;1.58;;
11496;SDS011;5805;51.542;7.230;2022-09-09T09:20:40;4.47;;;1.58;;
11496;SDS011;5805;51.542;7.230;2022-09-09T09:23:12;7.50;;;1.60;;
11496;SDS011;5805;51.542;7.230;2022-09-09T09:25:46;8.35;;;2.78;;
11496;SDS011;5805;51.542;7.230;2022-09-09T09:28:12;6.05;;;1.80;;
11496;SDS011;5805;51.542;7.230;2022-09-09T09:30:42;8.05;;;1.80;;
11496;SDS011;5805;51.542;7.230;2022-09-09T09:33:14;6.47;;;1.40;;
11496;SDS011;5805;51.542;7.230;2022-09-09T09:35:45;4.85;;;1.63;;
11496;SDS011;5805;51.542;7.230;2022-09-09T09:38:16;4.75;;;1.60;;
11496;SDS011;5805;51.542;7.230;2022-09-09T09:40:48;6.43;;;2.28;;
11496;SDS011;5805;51.542;7.230;2022-09-09T09:43:16;4.35;;;1.50;;
11496;SDS011;5805;51.542;7.230;2022-09-09T09:45:46;5.20;;;1.85;;
11496;SDS011;5805;51.542;7.230;2022-09-09T09:48:12;4.85;;;1.60;;
11496;SDS011;5805;51.542;7.230;2022-09-09T09:50:45;4.07;;;1.70;;
11496;SDS011;5805;51.542;7.230;2022-09-09T09:53:17;5.40;;;1.40;;
11496;SDS011;5805;51.542;7.230;2022-09-09T09:55:48;3.08;;;1.13;;
11496;SDS011;5805;51.542;7.230;2022-09-09T09:58:18;8.52;;;1.55;;
11496;SDS011;5805;51.542;7.230;2022-09-09T10:00:48;5.80;;;1.50;;
11496;SDS011;5805;51.542;7.230;2022-09-09T10:03:23;4.63;;;1.60;;
11496;SDS011;5805;51.542;7.230;2022-09-09T10:05:52;4.68;;;1.17;;
11496;SDS011;5805;51.542;7.230;2022-09-09T10:08:18;4.10;;;1.48;;
11496;SDS011;5805;51.542;7.230;2022-09-09T10:10:56;5.00;;;1.15;;
11496;SDS011;5805;51.542;7.230;2022-09-09T10:13:36;4.35;;;1.63;;
11496;SDS011;5805;51.542;7.230;2022-09-09T10:16:16;9.82;;;1.70;;
11496;SDS011;5805;51.542;7.230;2022-09-09T10:18:56;4.20;;;1.35;;
11496;SDS011;5805;51.542;7.230;2022-09-09T10:21:28;3.50;;;1.20;;
11496;SDS011;5805;51.542;7.230;2022-09-09T10:24:13;5.15;;;1.70;;
11496;SDS011;5805;51.542;7.230;2022-09-09T10:26:51;4.10;;;1.50;;
11496;SDS011;5805;51.542;7.230;2022-09-09T10:29:28;3.65;;;1.27;;
11496;SDS011;5805;51.542;7.230;2022-09-09T10:32:05;3.53;;;1.50;;
11496;SDS011;5805;51.542;7.230;2022-09-09T10:34:45;5.13;;;1.10;;
11496;SDS011;5805;51.542;7.230;2022-09-09T10:37:22;4.55;;;1.63;;
11496;SDS011;5805;51.542;7.230;2022-09-09T10:40:01;5.03;;;1.23;;
11496;SDS011;5805;51.542;7.230;2022-09-09T10:42:38;4.53;;;1.63;;
11496;SDS011;5805;51.542;7.230;2022-09-09T10:45:07;2.22;;;1.13;;
11496;SDS011;5805;51.542;7.230;2022-09-09T10:47:50;3.25;;;1.33;;
11496;SDS011;5805;51.542;7.230;2022-09-09T10:50:28;8.65;;;1.73;;
11496;SDS011;5805;51.542;7.230;2022-09-09T10:53:09;4.43;;;1.52;;
11496;SDS011;5805;51.542;7.230;2022-09-09T10:55:40;6.05;;;1.65;;
11496;SDS011;5805;51.542;7.230;2022-09-09T10:58:10;4.13;;;1.17;;
11496;SDS011;5805;51.542;7.230;2022-09-09T11:00:40;4.80;;;1.17;;
11496;SDS011;5805;51.542;7.230;2022-09-09T11:03:14;2.15;;;1.10;;
11496;SDS011;5805;51.542;7.230;2022-09-09T11:05:44;5.10;;;1.92;;
11496;SDS011;5805;51.542;7.230;2022-09-09T11:08:13;6.18;;;1.88;;
11496;SDS011;5805;51.542;7.230;2022-09-09T11:10:44;4.70;;;1.38;;
11496;SDS011;5805;51.542;7.230;2022-09-09T11:13:14;7.07;;;1.60;;
11496;SDS011;5805;51.542;7.230;2022-09-09T11:15:45;4.07;;;1.65;;
11496;SDS011;5805;51.542;7.230;2022-09-09T11:18:17;2.97;;;1.50;;
11496;SDS011;5805;51.542;7.230;2022-09-09T11:20:45;2.30;;;1.10;;
11496;SDS011;5805;51.542;7.230;2022-09-09T11:23:15;4.80;;;1.20;;
11496;SDS011;5805;51.542;7.230;2022-09-09T11:25:48;6.35;;;2.08;;
11496;SDS011;5805;51.542;7.230;2022-09-09T11:28:26;5.25;;;1.70;;
11496;SDS011;5805;51.542;7.230;2022-09-09T11:31:10;12.45;;;2.30;;
11496;SDS011;5805;51.542;7.230;2022-09-09T11:33:57;6.05;;;2.05;;
11496;SDS011;5805;51.542;7.230;2022-09-09T11:36:53;5.57;;;1.90;;
11496;SDS011;5805;51.542;7.230;2022-09-09T11:39:43;4.35;;;1.70;;
11496;SDS011;5805;51.542;7.230;2022-09-09T11:42:19;5.40;;;1.80;;
11496;SDS011;5805;51.542;7.230;2022-09-09T11:44:47;4.85;;;2.38;;
11496;SDS011;5805;51.542;7.230;2022-09-09T11:47:16;2.20;;;0.90;;
11496;SDS011;5805;51.542;7.230;2022-09-09T11:49:47;7.28;;;1.15;;
11496;SDS011;5805;51.542;7.230;2022-09-09T11:52:19;1.77;;;0.77;;
11496;SDS011;5805;51.542;7.230;2022-09-09T11:54:48;2.50;;;1.17;;
11496;SDS011;5805;51.542;7.230;2022-09-09T11:57:23;1.88;;;1.00;;
11496;SDS011;5805;51.542;7.230;2022-09-09T11:59:52;2.60;;;0.90;;
11496;SDS011;5805;51.542;7.230;2022-09-09T12:02:19;6.10;;;1.35;;
11496;SDS011;5805;51.542;7.230;2022-09-09T12:04:54;5.38;;;2.08;;
11496;SDS011;5805;51.542;7.230;2022-09-09T12:07:25;10.20;;;1.67;;
11496;SDS011;5805;51.542;7.230;2022-09-09T12:09:58;4.53;;;1.40;;
11496;SDS011;5805;51.542;7.230;2022-09-09T12:12:28;7.95;;;1.50;;
11496;SDS011;5805;51.542;7.230;2022-09-09T12:15:16;3.53;;;1.27;;
11496;SDS011;5805;51.542;7.230;2022-09-09T12:17:50;8.13;;;1.60;;
11496;SDS011;5805;51.542;7.230;2022-09-09T12:20:18;7.70;;;2.35;;
11496;SDS011;5805;51.542;7.230;2022-09-09T12:22:51;4.00;;;1.90;;
11496;SDS011;5805;51.542;7.230;2022-09-09T12:25:30;6.38;;;2.20;;
11496;SDS011;5805;51.542;7.230;2022-09-09T12:28:04;6.93;;;1.63;;
11496;SDS011;5805;51.542;7.230;2022-09-09T12:30:39;4.40;;;1.42;;
11496;SDS011;5805;51.542;7.230;2022-09-09T12:33:11;1.10;;;0.70;;
11496;SDS011;5805;51.542;7.230;2022-09-09T12:35:39;2.08;;;1.00;;
11496;SDS011;5805;51.542;7.230;2022-09-09T12:38:09;1.33;;;0.80;;
11496;SDS011;5805;51.542;7.230;2022-09-09T12:40:39;2.35;;;0.90;;
11496;SDS011;5805;51.542;7.230;2022-09-09T12:43:19;2.42;;;0.98;;
11496;SDS011;5805;51.542;7.230;2022-09-09T12:45:45;1.88;;;0.82;;
11496;SDS011;5805;51.542;7.230;2022-09-09T12:48:11;3.10;;;1.05;;
11496;SDS011;5805;51.542;7.230;2022-09-09T12:50:42;4.05;;;1.25;;
11496;SDS011;5805;51.542;7.230;2022-09-09T12:53:15;1.70;;;0.90;;
11496;SDS011;5805;51.542;7.230;2022-09-09T12:55:49;3.40;;;0.80;;
11496;SDS011;5805;51.542;7.230;2022-09-09T12:58:16;1.27;;;0.70;;
11496;SDS011;5805;51.542;7.230;2022-09-09T13:00:48;1.60;;;1.10;;
11496;SDS011;5805;51.542;7.230;2022-09-09T13:03:16;2.95;;;1.00;;
11496;SDS011;5805;51.542;7.230;2022-09-09T13:05:45;2.63;;;1.00;;
11496;SDS011;5805;51.542;7.230;2022-09-09T13:08:11;2.28;;;1.05;;
11496;SDS011;5805;51.542;7.230;2022-09-09T13:10:39;2.95;;;1.02;;
11496;SDS011;5805;51.542;7.230;2022-09-09T13:13:12;3.58;;;1.20;;
11496;SDS011;5805;51.542;7.230;2022-09-09T13:15:40;3.40;;;1.00;;
11496;SDS011;5805;51.542;7.230;2022-09-09T13:18:20;5.80;;;1.00;;
11496;SDS011;5805;51.542;7.230;2022-09-09T13:20:49;2.33;;;0.82;;
11496;SDS011;5805;51.542;7.230;2022-09-09T13:23:16;3.47;;;1.02;;
11496;SDS011;5805;51.542;7.230;2022-09-09T13:25:51;6.28;;;1.70;;
11496;SDS011;5805;51.542;7.230;2022-09-09T13:28:20;3.28;;;1.10;;
11496;SDS011;5805;51.542;7.230;2022-09-09T13:30:54;3.15;;;1.15;;
11496;SDS011;5805;51.542;7.230;2022-09-09T13:33:21;1.90;;;0.98;;
11496;SDS011;5805;51.542;7.230;2022-09-09T13:35:50;2.47;;;1.20;;
11496;SDS011;5805;51.542;7.230;2022-09-09T13:38:18;2.55;;;0.90;;
11496;SDS011;5805;51.542;7.230;2022-09-09T13:40:54;4.63;;;1.05;;
11496;SDS011;5805;51.542;7.230;2022-09-09T13:43:22;4.25;;;0.93;;
11496;SDS011;5805;51.542;7.230;2022-09-09T13:45:52;2.80;;;1.13;;
11496;SDS011;5805;51.542;7.230;2022-09-09T13:48:22;1.55;;;1.00;;
11496;SDS011;5805;51.542;7.230;2022-09-09T13:50:54;3.33;;;1.35;;
11496;SDS011;5805;51.542;7.230;2022-09-09T13:53:21;1.85;;;1.10;;
11496;SDS011;5805;51.542;7.230;2022-09-09T13:55:47;9.52;;;2.58;;
11496;SDS011;5805;51.542;7.230;2022-09-09T13:58:14;5.05;;;1.60;;
11496;SDS011;5805;51.542;7.230;2022-09-09T14:00:41;6.65;;;1.70;;
11496;SDS011;5805;51.542;7.230;2022-09-09T14:03:07;8.13;;;2.53;;
11496;SDS011;5805;51.542;7.230;2022-09-09T14:05:33;7.35;;;1.70;;
11496;SDS011;5805;51.542;7.230;2022-09-09T14:08:00;6.78;;;1.80;;
11496;SDS011;5805;51.542;7.230;2022-09-09T14:10:28;6.78;;;1.98;;
11496;SDS011;5805;51.542;7.230;2022-09-09T14:12:53;5.70;;;1.73;;
11496;SDS011;5805;51.542;7.230;2022-09-09T14:15:19;2.92;;;1.45;;
11496;SDS011;5805;51.542;7.230;2022-09-09T14:17:45;3.15;;;1.50;;
11496;SDS011;5805;51.542;7.230;2022-09-09T14:20:10;3.40;;;1.48;;
11496;SDS011;5805;51.542;7.230;2022-09-09T14:22:36;4.00;;;1.40;;
11496;SDS011;5805;51.542;7.230;2022-09-09T14:25:04;3.92;;;1.52;;
11496;SDS011;5805;51.542;7.230;2022-09-09T14:27:31;3.88;;;1.40;;
11496;SDS011;5805;51.542;7.230;2022-09-09T14:29:56;6.53;;;1.40;;
11496;SDS011;5805;51.542;7.230;2022-09-09T14:32:22;2.75;;;1.40;;
11496;SDS011;5805;51.542;7.230;2022-09-09T14:34:48;2.85;;;1.33;;
11496;SDS011;5805;51.542;7.230;2022-09-09T14:37:13;2.60;;;1.10;;
11496;SDS011;5805;51.542;7.230;2022-09-09T14:39:39;3.70;;;1.40;;
11496;SDS011;5805;51.542;7.230;2022-09-09T14:42:06;3.88;;;1.38;;
11496;SDS011;5805;51.542;7.230;2022-09-09T14:44:32;3.95;;;1.65;;
11496;SDS011;5805;51.542;7.230;2022-09-09T14:46:58;3.47;;;1.20;;
11496;SDS011;5805;51.542;7.230;2022-09-09T14:49:23;3.72;;;1.27;;
11496;SDS011;5805;51.542;7.230;2022-09-09T14:51:49;6.55;;;1.80;;
11496;SDS011;5805;51.542;7.230;2022-09-09T14:54:15;3.97;;;1.60;;
11496;SDS011;5805;51.542;7.230;2022-09-09T14:56:40;2.67;;;1.40;;
11496;SDS011;5805;51.542;7.230;2022-09-09T14:59:07;3.58;;;1.40;;
11496;SDS011;5805;51.542;7.230;2022-09-09T15:01:33;4.75;;;1.52;;
11496;SDS011;5805;51.542;7.230;2022-09-09T15:03:59;3.72;;;1.50;;
11496;SDS011;5805;51.542;7.230;2022-09-09T15:06:28;5.10;;;1.75;;
11496;SDS011;5805;51.542;7.230;2022-09-09T15:08:57;3.25;;;1.08;;
11496;SDS011;5805;51.542;7.230;2022-09-09T15:11:22;4.03;;;1.10;;
11496;SDS011;5805;51.542;7.230;2022-09-09T15:13:50;2.13;;;1.02;;
11496;SDS011;5805;51.542;7.230;2022-09-09T15:16:18;2.67;;;0.93;;